PWSweather.com
Personal Weather Stations
Station Observations
IONTARIO88
Lincoln, ON L0R

Lincoln, ON L0R

Lat: 43.1763563, Lon: -79.4719525

Elevation: 297

Station Type: Davis Vantage Pro 2 Plus

http://www.beamsvillewx.ca

Latest ConditionsUpdated 10:10:01 PM EDT Monday, Mar 27, 2017
Currently Today's Max Today's Min Today's Average
Temperature 50.7°F10.4°C 64.2°F17.9°C 39.3°F4.1°C 52.6°F11.4°C
Dew Point 46.7°F8.2°C 55.8°F13.2°C 37.4°F3.0°C 48.3°F9.1°C
Winds 3.5 mph SW5.6 kmh SW 11.5 mph WSW18.5 kmh WSW - 3.6 mph 5.8 kmh
Wind Gusts 9.2 mph14.8 kmh 18.4 mph29.6 kmh - -
Humidity 86% 95% 68% 86%
Pressure 29.89 in1012.2 mb 29.94 in1013.9 mb 29.85 in1010.8 mb -
Precipitation - 0.06 in1.5 mm - -
Hour Temp Dew Point Humidity Winds Wind Gusts Pressure Precip Precip Rate Daily Precip Total
10:10 PM 50.7°F10.4°C 46.7°F8.2°C 86% 3.5 mph SW5.6 kmh SW 9.2 mph14.8 kmh 29.89 in1012.2 mb - 0.00 in0.0 mm 0.06 in1.5 mm
10:00 PM 50.9°F10.5°C 46.9°F8.3°C 86% 6.9 mph SW11.1 kmh SW 11.5 mph18.5 kmh 29.89 in1012.2 mb - 0.00 in0.0 mm 0.06 in1.5 mm
09:50 PM 51.6°F10.9°C 47.2°F8.4°C 85% 3.5 mph SW5.6 kmh SW 9.2 mph14.8 kmh 29.88 in1011.9 mb - 0.00 in0.0 mm 0.06 in1.5 mm
09:40 PM 52.2°F11.2°C 47.9°F8.8°C 85% 4.6 mph SW7.4 kmh SW 6.9 mph11.1 kmh 29.88 in1011.9 mb - 0.00 in0.0 mm 0.06 in1.5 mm
09:30 PM 52.8°F11.6°C 48.4°F9.1°C 85% 4.6 mph SSW7.4 kmh SSW 8.1 mph13.0 kmh 29.88 in1011.9 mb - 0.00 in0.0 mm 0.06 in1.5 mm
09:20 PM 53.4°F11.9°C 48.7°F9.3°C 84% 4.6 mph SW7.4 kmh SW 6.9 mph11.1 kmh 29.87 in1011.5 mb - 0.00 in0.0 mm 0.06 in1.5 mm
09:10 PM 53.8°F12.1°C 49.1°F9.5°C 84% 4.6 mph SSW7.4 kmh SSW 6.9 mph11.1 kmh 29.87 in1011.5 mb - 0.00 in0.0 mm 0.06 in1.5 mm
09:00 PM 54.3°F12.4°C 49.6°F9.8°C 84% 2.3 mph SW3.7 kmh SW 5.8 mph9.3 kmh 29.87 in1011.5 mb - 0.00 in0.0 mm 0.06 in1.5 mm
08:50 PM 54.7°F12.6°C 49.6°F9.8°C 83% 1.2 mph SSW1.9 kmh SSW 3.5 mph5.6 kmh 29.87 in1011.5 mb - 0.00 in0.0 mm 0.06 in1.5 mm
08:40 PM 55.1°F12.8°C 50.0°F10.0°C 83% 2.3 mph SSW3.7 kmh SSW 4.6 mph7.4 kmh 29.87 in1011.5 mb - 0.00 in0.0 mm 0.06 in1.5 mm
08:30 PM 55.4°F13.0°C 50.0°F10.0°C 82% 2.3 mph SSW3.7 kmh SSW 2.3 mph3.7 kmh 29.87 in1011.5 mb - 0.00 in0.0 mm 0.06 in1.5 mm
08:20 PM 55.5°F13.1°C 50.4°F10.2°C 83% Calm Calm 1.2 mph1.9 kmh 29.87 in1011.5 mb - 0.00 in0.0 mm 0.06 in1.5 mm
08:10 PM 55.6°F13.1°C 50.5°F10.3°C 83% Calm Calm 1.2 mph1.9 kmh 29.87 in1011.5 mb - 0.00 in0.0 mm 0.06 in1.5 mm
08:00 PM 56.0°F13.3°C 50.6°F10.3°C 82% 1.2 mph SSW1.9 kmh SSW 6.9 mph11.1 kmh 29.87 in1011.5 mb - 0.00 in0.0 mm 0.06 in1.5 mm
07:50 PM 56.6°F13.7°C 50.8°F10.4°C 81% 1.2 mph SW1.9 kmh SW 3.5 mph5.6 kmh 29.87 in1011.5 mb - 0.00 in0.0 mm 0.06 in1.5 mm
07:40 PM 57.2°F14.0°C 51.4°F10.8°C 81% 2.3 mph SW3.7 kmh SW 3.5 mph5.6 kmh 29.87 in1011.5 mb - 0.00 in0.0 mm 0.06 in1.5 mm
07:30 PM 58.2°F14.6°C 51.7°F10.9°C 79% 2.3 mph SSW3.7 kmh SSW 5.8 mph9.3 kmh 29.87 in1011.5 mb - 0.00 in0.0 mm 0.06 in1.5 mm
07:20 PM 59.4°F15.2°C 52.2°F11.2°C 77% 2.3 mph SSW3.7 kmh SSW 4.6 mph7.4 kmh 29.87 in1011.5 mb - 0.00 in0.0 mm 0.06 in1.5 mm
07:10 PM 59.5°F15.3°C 51.6°F10.9°C 75% 2.3 mph SW3.7 kmh SW 5.8 mph9.3 kmh 29.87 in1011.5 mb - 0.00 in0.0 mm 0.06 in1.5 mm
07:00 PM 59.9°F15.5°C 51.6°F10.9°C 74% 4.6 mph SW7.4 kmh SW 8.1 mph13.0 kmh 29.87 in1011.5 mb - 0.00 in0.0 mm 0.06 in1.5 mm
06:50 PM 60.3°F15.7°C 51.6°F10.9°C 73% 3.5 mph WSW5.6 kmh WSW 5.8 mph9.3 kmh 29.87 in1011.5 mb - 0.00 in0.0 mm 0.06 in1.5 mm
06:40 PM 61.1°F16.2°C 52.0°F11.1°C 72% 2.3 mph SW3.7 kmh SW 6.9 mph11.1 kmh 29.86 in1011.2 mb - 0.00 in0.0 mm 0.06 in1.5 mm
06:30 PM 61.9°F16.6°C 52.4°F11.3°C 71% 3.5 mph SW5.6 kmh SW 3.5 mph5.6 kmh 29.86 in1011.2 mb - 0.00 in0.0 mm 0.06 in1.5 mm
06:20 PM 61.6°F16.4°C 52.4°F11.3°C 72% 3.5 mph WSW5.6 kmh WSW 5.8 mph9.3 kmh 29.86 in1011.2 mb - 0.00 in0.0 mm 0.06 in1.5 mm
06:10 PM 61.8°F16.6°C 52.3°F11.3°C 71% 6.9 mph SW11.1 kmh SW 12.7 mph20.4 kmh 29.86 in1011.2 mb - 0.00 in0.0 mm 0.06 in1.5 mm
06:00 PM 62.4°F16.9°C 52.5°F11.4°C 70% 5.8 mph WSW9.3 kmh WSW 10.4 mph16.7 kmh 29.86 in1011.2 mb - 0.00 in0.0 mm 0.06 in1.5 mm
05:50 PM 63.3°F17.4°C 52.9°F11.6°C 69% 4.6 mph WSW7.4 kmh WSW 5.8 mph9.3 kmh 29.86 in1011.2 mb - 0.00 in0.0 mm 0.06 in1.5 mm
05:40 PM 64.1°F17.8°C 53.3°F11.8°C 68% 4.6 mph WSW7.4 kmh WSW 10.4 mph16.7 kmh 29.86 in1011.2 mb - 0.00 in0.0 mm 0.06 in1.5 mm
05:30 PM 62.4°F16.9°C 52.8°F11.6°C 71% 3.5 mph WSW5.6 kmh WSW 8.1 mph13.0 kmh 29.86 in1011.2 mb - 0.00 in0.0 mm 0.06 in1.5 mm
05:20 PM 61.8°F16.6°C 52.7°F11.5°C 72% 6.9 mph WSW11.1 kmh WSW 13.8 mph22.2 kmh 29.86 in1011.2 mb - 0.00 in0.0 mm 0.06 in1.5 mm
05:10 PM 62.0°F16.7°C 52.5°F11.4°C 71% 4.6 mph WSW7.4 kmh WSW 8.1 mph13.0 kmh 29.86 in1011.2 mb - 0.00 in0.0 mm 0.06 in1.5 mm
05:00 PM 62.9°F17.2°C 52.9°F11.6°C 70% 4.6 mph WSW7.4 kmh WSW 6.9 mph11.1 kmh 29.86 in1011.2 mb - 0.00 in0.0 mm 0.06 in1.5 mm
04:50 PM 63.6°F17.6°C 53.3°F11.8°C 69% 8.1 mph WSW13.0 kmh WSW 11.5 mph18.5 kmh 29.86 in1011.2 mb - 0.00 in0.0 mm 0.06 in1.5 mm
04:40 PM 63.2°F17.3°C 53.3°F11.8°C 70% 11.5 mph WSW18.5 kmh WSW 17.3 mph27.8 kmh 29.86 in1011.2 mb - 0.00 in0.0 mm 0.06 in1.5 mm
04:30 PM 63.6°F17.6°C 53.2°F11.8°C 69% 11.5 mph WSW18.5 kmh WSW 18.4 mph29.6 kmh 29.86 in1011.2 mb - 0.00 in0.0 mm 0.06 in1.5 mm
04:20 PM 64.2°F17.9°C 54.2°F12.3°C 70% 6.9 mph WSW11.1 kmh WSW 13.8 mph22.2 kmh 29.86 in1011.2 mb - 0.00 in0.0 mm 0.06 in1.5 mm
04:10 PM 63.1°F17.3°C 53.9°F12.2°C 72% 5.8 mph WSW9.3 kmh WSW 9.2 mph14.8 kmh 29.86 in1011.2 mb - 0.00 in0.0 mm 0.06 in1.5 mm
04:00 PM 62.8°F17.1°C 53.6°F12.0°C 72% 6.9 mph SW11.1 kmh SW 8.1 mph13.0 kmh 29.86 in1011.2 mb - 0.00 in0.0 mm 0.06 in1.5 mm
03:50 PM 62.5°F16.9°C 54.1°F12.3°C 74% 8.1 mph WSW13.0 kmh WSW 11.5 mph18.5 kmh 29.86 in1011.2 mb - 0.00 in0.0 mm 0.06 in1.5 mm
03:40 PM 62.6°F17.0°C 53.9°F12.2°C 73% 6.9 mph WSW11.1 kmh WSW 11.5 mph18.5 kmh 29.86 in1011.2 mb - 0.00 in0.0 mm 0.06 in1.5 mm
03:30 PM 62.4°F16.9°C 54.0°F12.2°C 74% 5.8 mph SW9.3 kmh SW 11.5 mph18.5 kmh 29.87 in1011.5 mb - 0.00 in0.0 mm 0.06 in1.5 mm
03:20 PM 62.7°F17.1°C 54.3°F12.4°C 74% 8.1 mph WSW13.0 kmh WSW 11.5 mph18.5 kmh 29.87 in1011.5 mb - 0.00 in0.0 mm 0.06 in1.5 mm
03:10 PM 63.1°F17.3°C 54.3°F12.4°C 73% 11.5 mph WSW18.5 kmh WSW 17.3 mph27.8 kmh 29.87 in1011.5 mb - 0.00 in0.0 mm 0.06 in1.5 mm
03:00 PM 62.4°F16.9°C 54.3°F12.4°C 75% 6.9 mph WSW11.1 kmh WSW 13.8 mph22.2 kmh 29.87 in1011.5 mb - 0.00 in0.0 mm 0.06 in1.5 mm
02:50 PM 63.5°F17.5°C 54.7°F12.6°C 73% 8.1 mph SW13.0 kmh SW 13.8 mph22.2 kmh 29.87 in1011.5 mb - 0.00 in0.0 mm 0.06 in1.5 mm
02:40 PM 63.3°F17.4°C 55.2°F12.9°C 75% 8.1 mph SW13.0 kmh SW 15.0 mph24.1 kmh 29.87 in1011.5 mb - 0.00 in0.0 mm 0.06 in1.5 mm
02:30 PM 63.2°F17.3°C 55.8°F13.2°C 77% 5.8 mph SW9.3 kmh SW 6.9 mph11.1 kmh 29.87 in1011.5 mb - 0.00 in0.0 mm 0.06 in1.5 mm
02:20 PM 62.2°F16.8°C 54.9°F12.7°C 77% 5.8 mph SW9.3 kmh SW 8.1 mph13.0 kmh 29.87 in1011.5 mb - 0.00 in0.0 mm 0.06 in1.5 mm
02:10 PM 61.5°F16.4°C 54.6°F12.6°C 78% 6.9 mph W11.1 kmh W 9.2 mph14.8 kmh 29.87 in1011.5 mb - 0.00 in0.0 mm 0.06 in1.5 mm
02:00 PM 61.7°F16.5°C 54.8°F12.7°C 78% 6.9 mph WSW11.1 kmh WSW 11.5 mph18.5 kmh 29.87 in1011.5 mb - 0.00 in0.0 mm 0.06 in1.5 mm
01:50 PM 61.4°F16.3°C 55.2°F12.9°C 80% 4.6 mph WSW7.4 kmh WSW 9.2 mph14.8 kmh 29.87 in1011.5 mb - 0.00 in0.0 mm 0.06 in1.5 mm
01:40 PM 60.1°F15.6°C 54.6°F12.6°C 82% 5.8 mph SW9.3 kmh SW 5.8 mph9.3 kmh 29.87 in1011.5 mb - 0.00 in0.0 mm 0.06 in1.5 mm
01:30 PM 60.4°F15.8°C 54.5°F12.5°C 81% 5.8 mph SW9.3 kmh SW 10.4 mph16.7 kmh 29.88 in1011.9 mb - 0.00 in0.0 mm 0.06 in1.5 mm
01:20 PM 60.6°F15.9°C 54.7°F12.6°C 81% 4.6 mph SW7.4 kmh SW 10.4 mph16.7 kmh 29.87 in1011.5 mb - 0.00 in0.0 mm 0.06 in1.5 mm
01:10 PM 59.6°F15.3°C 54.8°F12.7°C 84% 4.6 mph WSW7.4 kmh WSW 5.8 mph9.3 kmh 29.88 in1011.9 mb - 0.00 in0.0 mm 0.06 in1.5 mm
01:00 PM 58.7°F14.8°C 54.2°F12.3°C 85% 2.3 mph WSW3.7 kmh WSW 3.5 mph5.6 kmh 29.88 in1011.9 mb - 0.00 in0.0 mm 0.06 in1.5 mm
12:50 PM 58.6°F14.8°C 54.1°F12.3°C 85% 4.6 mph WSW7.4 kmh WSW 4.6 mph7.4 kmh 29.88 in1011.9 mb - 0.00 in0.0 mm 0.06 in1.5 mm
12:40 PM 58.5°F14.7°C 54.0°F12.2°C 85% 5.8 mph W9.3 kmh W 10.4 mph16.7 kmh 29.88 in1011.9 mb - 0.00 in0.0 mm 0.06 in1.5 mm
12:30 PM 58.6°F14.8°C 54.1°F12.3°C 85% 5.8 mph W9.3 kmh W 8.1 mph13.0 kmh 29.88 in1011.9 mb - 0.00 in0.0 mm 0.06 in1.5 mm
12:20 PM 58.4°F14.7°C 54.0°F12.2°C 85% 4.6 mph WSW7.4 kmh WSW 5.8 mph9.3 kmh 29.88 in1011.9 mb - 0.00 in0.0 mm 0.06 in1.5 mm
12:10 PM 58.0°F14.4°C 54.1°F12.3°C 87% 3.5 mph SW5.6 kmh SW 4.6 mph7.4 kmh 29.88 in1011.9 mb - 0.00 in0.0 mm 0.06 in1.5 mm
12:00 PM 57.3°F14.1°C 53.5°F11.9°C 87% 2.3 mph WSW3.7 kmh WSW 4.6 mph7.4 kmh 29.88 in1011.9 mb - 0.00 in0.0 mm 0.06 in1.5 mm
11:50 AM 57.1°F13.9°C 53.6°F12.0°C 88% 4.6 mph WSW7.4 kmh WSW 5.8 mph9.3 kmh 29.88 in1011.9 mb - 0.00 in0.0 mm 0.06 in1.5 mm
11:40 AM 56.5°F13.6°C 53.0°F11.7°C 88% 4.6 mph WSW7.4 kmh WSW 4.6 mph7.4 kmh 29.88 in1011.9 mb - 0.00 in0.0 mm 0.06 in1.5 mm
11:30 AM 55.9°F13.3°C 52.4°F11.3°C 88% 3.5 mph SW5.6 kmh SW 4.6 mph7.4 kmh 29.88 in1011.9 mb - 0.00 in0.0 mm 0.06 in1.5 mm
11:20 AM 55.5°F13.1°C 52.3°F11.3°C 89% 1.2 mph SW1.9 kmh SW 4.6 mph7.4 kmh 29.88 in1011.9 mb - 0.00 in0.0 mm 0.06 in1.5 mm
11:10 AM 55.1°F12.8°C 52.2°F11.2°C 90% 1.2 mph SW1.9 kmh SW 1.2 mph1.9 kmh 29.88 in1011.9 mb - 0.00 in0.0 mm 0.06 in1.5 mm
11:00 AM 54.9°F12.7°C 52.0°F11.1°C 90% 5.8 mph SW9.3 kmh SW 9.2 mph14.8 kmh 29.88 in1011.9 mb - 0.00 in0.0 mm 0.06 in1.5 mm
10:50 AM 54.9°F12.7°C 52.0°F11.1°C 90% 4.6 mph SW7.4 kmh SW 6.9 mph11.1 kmh 29.88 in1011.9 mb - 0.00 in0.0 mm 0.06 in1.5 mm
10:40 AM 54.5°F12.5°C 51.9°F11.1°C 91% 2.3 mph SW3.7 kmh SW 4.6 mph7.4 kmh 29.88 in1011.9 mb - 0.00 in0.0 mm 0.06 in1.5 mm
10:30 AM 54.0°F12.2°C 51.4°F10.8°C 91% 4.6 mph SW7.4 kmh SW 6.9 mph11.1 kmh 29.87 in1011.5 mb - 0.00 in0.0 mm 0.06 in1.5 mm
10:20 AM 53.5°F11.9°C 51.0°F10.6°C 91% 2.3 mph WSW3.7 kmh WSW 3.5 mph5.6 kmh 29.87 in1011.5 mb - 0.00 in0.0 mm 0.06 in1.5 mm
10:10 AM 53.2°F11.8°C 50.9°F10.5°C 92% 1.2 mph SW1.9 kmh SW 6.9 mph11.1 kmh 29.87 in1011.5 mb - 0.00 in0.0 mm 0.06 in1.5 mm
10:00 AM 52.9°F11.6°C 50.6°F10.3°C 92% 4.6 mph SSW7.4 kmh SSW 6.9 mph11.1 kmh 29.86 in1011.2 mb - 0.00 in0.0 mm 0.06 in1.5 mm
09:50 AM 52.8°F11.6°C 50.5°F10.3°C 92% 2.3 mph SSW3.7 kmh SSW 6.9 mph11.1 kmh 29.86 in1011.2 mb - 0.00 in0.0 mm 0.06 in1.5 mm
09:40 AM 52.9°F11.6°C 50.6°F10.3°C 92% 5.8 mph SSW9.3 kmh SSW 6.9 mph11.1 kmh 29.86 in1011.2 mb - 0.00 in0.0 mm 0.06 in1.5 mm
09:30 AM 52.9°F11.6°C 50.6°F10.3°C 92% 8.1 mph SW13.0 kmh SW 11.5 mph18.5 kmh 29.86 in1011.2 mb - 0.00 in0.0 mm 0.06 in1.5 mm
09:20 AM 52.4°F11.3°C 50.5°F10.3°C 93% 5.8 mph SW9.3 kmh SW 8.1 mph13.0 kmh 29.86 in1011.2 mb - 0.00 in0.0 mm 0.06 in1.5 mm
09:10 AM 51.4°F10.8°C 49.5°F9.7°C 93% 3.5 mph S5.6 kmh S 10.4 mph16.7 kmh 29.86 in1011.2 mb - 0.00 in0.0 mm 0.06 in1.5 mm
09:00 AM 51.2°F10.7°C 49.2°F9.6°C 93% 5.8 mph SW9.3 kmh SW 6.9 mph11.1 kmh 29.86 in1011.2 mb - 0.00 in0.0 mm 0.06 in1.5 mm
08:50 AM 50.8°F10.4°C 48.8°F9.3°C 93% 2.3 mph SW3.7 kmh SW 4.6 mph7.4 kmh 29.86 in1011.2 mb - 0.00 in0.0 mm 0.06 in1.5 mm
08:40 AM 50.3°F10.2°C 48.3°F9.1°C 93% 4.6 mph SSW7.4 kmh SSW 11.5 mph18.5 kmh 29.86 in1011.2 mb - 0.00 in0.0 mm 0.06 in1.5 mm
08:30 AM 49.8°F9.9°C 47.9°F8.8°C 93% 4.6 mph SSW7.4 kmh SSW 6.9 mph11.1 kmh 29.87 in1011.5 mb - 0.00 in0.0 mm 0.06 in1.5 mm
08:20 AM 49.7°F9.8°C 47.8°F8.8°C 93% 4.6 mph SW7.4 kmh SW 6.9 mph11.1 kmh 29.87 in1011.5 mb - 0.00 in0.0 mm 0.06 in1.5 mm
08:10 AM 49.5°F9.7°C 47.6°F8.7°C 93% 4.6 mph SSW7.4 kmh SSW 8.1 mph13.0 kmh 29.87 in1011.5 mb - 0.00 in0.0 mm 0.06 in1.5 mm
08:00 AM 49.3°F9.6°C 47.4°F8.6°C 93% 2.3 mph SW3.7 kmh SW 8.1 mph13.0 kmh 29.87 in1011.5 mb - 0.00 in0.0 mm 0.06 in1.5 mm
07:50 AM 49.1°F9.5°C 47.2°F8.4°C 93% 4.6 mph SSW7.4 kmh SSW 6.9 mph11.1 kmh 29.87 in1011.5 mb - 0.00 in0.0 mm 0.06 in1.5 mm
07:40 AM 48.9°F9.4°C 47.0°F8.3°C 93% 4.6 mph SSW7.4 kmh SSW 10.4 mph16.7 kmh 29.87 in1011.5 mb - 0.00 in0.0 mm 0.06 in1.5 mm
07:30 AM 48.7°F9.3°C 46.8°F8.2°C 93% 6.9 mph S11.1 kmh S 9.2 mph14.8 kmh 29.87 in1011.5 mb - 0.00 in0.0 mm 0.06 in1.5 mm
07:20 AM 48.6°F9.2°C 46.7°F8.2°C 93% 4.6 mph SSW7.4 kmh SSW 12.7 mph20.4 kmh 29.86 in1011.2 mb - 0.00 in0.0 mm 0.06 in1.5 mm
07:10 AM 48.6°F9.2°C 46.7°F8.2°C 93% 3.5 mph SW5.6 kmh SW 9.2 mph14.8 kmh 29.86 in1011.2 mb - 0.00 in0.0 mm 0.06 in1.5 mm
07:00 AM 48.6°F9.2°C 46.7°F8.2°C 93% 3.5 mph SSW5.6 kmh SSW 6.9 mph11.1 kmh 29.86 in1011.2 mb - 0.00 in0.0 mm 0.06 in1.5 mm
06:50 AM 48.5°F9.2°C 46.6°F8.1°C 93% 5.8 mph SW9.3 kmh SW 11.5 mph18.5 kmh 29.86 in1011.2 mb - 0.00 in0.0 mm 0.06 in1.5 mm
06:40 AM 48.4°F9.1°C 46.5°F8.1°C 93% 4.6 mph SSW7.4 kmh SSW 6.9 mph11.1 kmh 29.86 in1011.2 mb - 0.00 in0.0 mm 0.06 in1.5 mm
06:30 AM 48.2°F9.0°C 46.3°F7.9°C 93% 4.6 mph S7.4 kmh S 4.6 mph7.4 kmh 29.86 in1011.2 mb - 0.00 in0.0 mm 0.06 in1.5 mm
06:20 AM 48.1°F8.9°C 46.2°F7.9°C 93% 4.6 mph SSW7.4 kmh SSW 8.1 mph13.0 kmh 29.85 in1010.8 mb - 0.00 in0.0 mm 0.06 in1.5 mm
06:10 AM 48.0°F8.9°C 46.1°F7.8°C 93% 6.9 mph SSW11.1 kmh SSW 12.7 mph20.4 kmh 29.85 in1010.8 mb - 0.00 in0.0 mm 0.06 in1.5 mm
06:00 AM 48.1°F8.9°C 46.2°F7.9°C 93% 5.8 mph SSW9.3 kmh SSW 11.5 mph18.5 kmh 29.85 in1010.8 mb - 0.00 in0.0 mm 0.06 in1.5 mm
05:50 AM 48.1°F8.9°C 46.5°F8.1°C 94% 6.9 mph S11.1 kmh S 9.2 mph14.8 kmh 29.85 in1010.8 mb - 0.00 in0.0 mm 0.06 in1.5 mm
05:40 AM 48.0°F8.9°C 46.6°F8.1°C 95% 4.6 mph SSW7.4 kmh SSW 9.2 mph14.8 kmh 29.85 in1010.8 mb - 0.00 in0.0 mm 0.06 in1.5 mm
05:30 AM 47.7°F8.7°C 46.4°F8.0°C 95% 3.5 mph SSW5.6 kmh SSW 8.1 mph13.0 kmh 29.85 in1010.8 mb - 0.00 in0.0 mm 0.06 in1.5 mm
05:20 AM 47.3°F8.5°C 45.9°F7.7°C 95% 2.3 mph SSW3.7 kmh SSW 5.8 mph9.3 kmh 29.85 in1010.8 mb - 0.00 in0.0 mm 0.06 in1.5 mm
05:10 AM 46.0°F7.8°C 44.7°F7.1°C 95% 1.2 mph SW1.9 kmh SW 5.8 mph9.3 kmh 29.85 in1010.8 mb - 0.01 in0.3 mm 0.06 in1.5 mm
05:00 AM 43.5°F6.4°C 41.9°F5.5°C 94% Calm Calm -- 29.86 in1011.2 mb - 0.01 in0.3 mm 0.06 in1.5 mm
04:50 AM 42.6°F5.9°C 41.0°F5.0°C 94% Calm Calm -- 29.86 in1011.2 mb - 0.00 in0.0 mm 0.05 in1.3 mm
04:40 AM 42.6°F5.9°C 41.0°F5.0°C 94% Calm Calm -- 29.86 in1011.2 mb - 0.01 in0.3 mm 0.05 in1.3 mm
04:30 AM 42.6°F5.9°C 40.7°F4.8°C 93% Calm Calm -- 29.86 in1011.2 mb - 0.02 in0.5 mm 0.04 in1.0 mm
04:20 AM 42.4°F5.8°C 40.5°F4.7°C 93% Calm Calm -- 29.87 in1011.5 mb - 0.01 in0.3 mm 0.02 in0.5 mm
04:10 AM 42.4°F5.8°C 40.5°F4.7°C 93% Calm Calm -- 29.87 in1011.5 mb - 0.00 in0.0 mm 0.01 in0.3 mm
04:00 AM 42.0°F5.6°C 40.1°F4.5°C 93% Calm Calm -- 29.87 in1011.5 mb - 0.00 in0.0 mm 0.01 in0.3 mm
03:50 AM 41.8°F5.4°C 39.9°F4.4°C 93% Calm Calm -- 29.87 in1011.5 mb - 0.00 in0.0 mm 0.01 in0.3 mm
03:40 AM 41.8°F5.4°C 39.9°F4.4°C 93% Calm Calm -- 29.88 in1011.9 mb - 0.00 in0.0 mm 0.01 in0.3 mm
03:30 AM 41.5°F5.3°C 39.9°F4.4°C 94% Calm Calm -- 29.88 in1011.9 mb - 0.00 in0.0 mm 0.01 in0.3 mm
03:20 AM 41.2°F5.1°C 39.6°F4.2°C 94% Calm Calm -- 29.88 in1011.9 mb - 0.00 in0.0 mm 0.01 in0.3 mm
03:10 AM 41.2°F5.1°C 39.6°F4.2°C 94% Calm Calm -- 29.88 in1011.9 mb - 0.00 in0.0 mm 0.01 in0.3 mm
03:00 AM 41.0°F5.0°C 39.4°F4.1°C 94% Calm Calm -- 29.89 in1012.2 mb - 0.00 in0.0 mm 0.01 in0.3 mm
02:50 AM 40.9°F4.9°C 39.3°F4.1°C 94% Calm Calm -- 29.89 in1012.2 mb - 0.00 in0.0 mm 0.01 in0.3 mm
02:40 AM 40.7°F4.8°C 39.1°F3.9°C 94% Calm Calm -- 29.89 in1012.2 mb - 0.01 in0.3 mm 0.01 in0.3 mm
02:30 AM 40.3°F4.6°C 38.7°F3.7°C 94% Calm Calm 2.3 mph3.7 kmh 29.89 in1012.2 mb - 0.01 in0.3 mm 0.01 in0.3 mm
02:20 AM 40.0°F4.4°C 38.4°F3.6°C 94% Calm Calm -- 29.89 in1012.2 mb - 0.00 in0.0 mm 0.00 in0.0 mm
02:10 AM 39.7°F4.3°C 38.2°F3.4°C 94% Calm Calm -- 29.90 in1012.5 mb - 0.00 in0.0 mm 0.00 in0.0 mm
02:00 AM 39.5°F4.2°C 37.9°F3.3°C 94% Calm Calm -- 29.90 in1012.5 mb - 0.00 in0.0 mm 0.00 in0.0 mm
01:50 AM 39.4°F4.1°C 37.8°F3.2°C 94% Calm Calm 2.3 mph3.7 kmh 29.90 in1012.5 mb - 0.00 in0.0 mm 0.00 in0.0 mm
01:40 AM 39.3°F4.1°C 37.4°F3.0°C 93% Calm Calm -- 29.90 in1012.5 mb - 0.00 in0.0 mm 0.00 in0.0 mm
01:30 AM 39.5°F4.2°C 37.6°F3.1°C 93% Calm Calm -- 29.90 in1012.5 mb - 0.00 in0.0 mm 0.00 in0.0 mm
01:20 AM 39.7°F4.3°C 37.8°F3.2°C 93% Calm Calm -- 29.91 in1012.9 mb - 0.00 in0.0 mm 0.00 in0.0 mm
01:10 AM 40.1°F4.5°C 38.2°F3.4°C 93% Calm Calm -- 29.91 in1012.9 mb - 0.00 in0.0 mm 0.00 in0.0 mm
01:00 AM 40.3°F4.6°C 38.5°F3.6°C 93% Calm Calm 1.2 mph1.9 kmh 29.91 in1012.9 mb - 0.00 in0.0 mm 0.00 in0.0 mm
12:50 AM 40.5°F4.7°C 38.6°F3.7°C 93% Calm Calm -- 29.92 in1013.2 mb - 0.00 in0.0 mm 0.00 in0.0 mm
12:40 AM 40.5°F4.7°C 38.6°F3.7°C 93% Calm Calm -- 29.93 in1013.5 mb - 0.00 in0.0 mm 0.00 in0.0 mm
12:30 AM 40.5°F4.7°C 38.6°F3.7°C 93% Calm Calm -- 29.93 in1013.5 mb - 0.00 in0.0 mm 0.00 in0.0 mm
12:20 AM 40.8°F4.9°C 38.9°F3.8°C 93% 1.2 mph NW1.9 kmh NW 3.5 mph5.6 kmh 29.93 in1013.5 mb - 0.00 in0.0 mm 0.00 in0.0 mm
12:10 AM 41.2°F5.1°C 39.3°F4.1°C 93% 1.2 mph NW1.9 kmh NW 2.3 mph3.7 kmh 29.94 in1013.9 mb - 0.00 in0.0 mm 0.00 in0.0 mm
12:00 AM 41.3°F5.2°C 39.7°F4.3°C 94% Calm Calm -- 29.94 in1013.9 mb - 0.00 in0.0 mm 0.00 in0.0 mm